sensor_id;sensor_type;location;lat;lon;timestamp;pressure;altitude;pressure_sealevel;temperature;humidity
16595;BME280;8410;52.532;13.336;2024-02-16T00:00:13;101097.97;;;19.69;64.01
16595;BME280;8410;52.532;13.336;2024-02-16T00:02:43;101096.34;;;19.62;64.03
16595;BME280;8410;52.532;13.336;2024-02-16T00:05:10;101095.59;;;19.55;63.34
16595;BME280;8410;52.532;13.336;2024-02-16T00:07:39;101096.25;;;19.68;65.43
16595;BME280;8410;52.532;13.336;2024-02-16T00:10:07;101097.97;;;19.71;64.03
16595;BME280;8410;52.532;13.336;2024-02-16T00:12:36;101106.91;;;19.56;63.73
16595;BME280;8410;52.532;13.336;2024-02-16T00:15:06;101097.44;;;19.50;63.97
16595;BME280;8410;52.532;13.336;2024-02-16T00:17:34;101106.22;;;19.46;64.28
16595;BME280;8410;52.532;13.336;2024-02-16T00:20:02;101103.63;;;19.45;63.89
16595;BME280;8410;52.532;13.336;2024-02-16T00:22:30;101099.25;;;19.45;63.34
16595;BME280;8410;52.532;13.336;2024-02-16T00:24:57;101095.41;;;19.18;65.01
16595;BME280;8410;52.532;13.336;2024-02-16T00:27:25;101090.75;;;19.35;64.30
16595;BME280;8410;52.532;13.336;2024-02-16T00:29:52;101094.91;;;19.46;63.81
16595;BME280;8410;52.532;13.336;2024-02-16T00:32:21;101092.59;;;19.29;64.20
16595;BME280;8410;52.532;13.336;2024-02-16T00:34:50;101095.03;;;18.90;64.75
16595;BME280;8410;52.532;13.336;2024-02-16T00:37:20;101092.53;;;19.33;63.98
16595;BME280;8410;52.532;13.336;2024-02-16T00:39:47;101099.38;;;19.39;62.89
16595;BME280;8410;52.532;13.336;2024-02-16T00:42:15;101093.44;;;19.31;63.79
16595;BME280;8410;52.532;13.336;2024-02-16T00:44:42;101096.78;;;19.39;63.63
16595;BME280;8410;52.532;13.336;2024-02-16T00:47:10;101089.06;;;19.33;63.75
16595;BME280;8410;52.532;13.336;2024-02-16T00:49:39;101090.25;;;19.15;63.93
16595;BME280;8410;52.532;13.336;2024-02-16T00:52:07;101084.06;;;19.21;63.88
16595;BME280;8410;52.532;13.336;2024-02-16T00:54:36;101090.19;;;19.18;63.77
16595;BME280;8410;52.532;13.336;2024-02-16T00:57:04;101089.06;;;19.33;63.40
16595;BME280;8410;52.532;13.336;2024-02-16T00:59:32;101089.88;;;19.35;63.46
16595;BME280;8410;52.532;13.336;2024-02-16T01:01:59;101090.19;;;19.18;63.29
16595;BME280;8410;52.532;13.336;2024-02-16T01:04:27;101074.56;;;19.16;63.82
16595;BME280;8410;52.532;13.336;2024-02-16T01:06:57;101083.28;;;19.15;63.71
16595;BME280;8410;52.532;13.336;2024-02-16T01:09:25;101076.16;;;19.25;64.85
16595;BME280;8410;52.532;13.336;2024-02-16T01:11:53;101073.63;;;19.21;64.62
16595;BME280;8410;52.532;13.336;2024-02-16T01:14:20;101061.00;;;19.44;63.80
16595;BME280;8410;52.532;13.336;2024-02-16T01:16:48;101072.09;;;19.09;64.31
16595;BME280;8410;52.532;13.336;2024-02-16T01:19:15;101070.06;;;19.25;63.99
16595;BME280;8410;52.532;13.336;2024-02-16T01:21:44;101059.22;;;19.46;63.97
16595;BME280;8410;52.532;13.336;2024-02-16T01:24:15;101064.28;;;19.07;64.66
16595;BME280;8410;52.532;13.336;2024-02-16T01:26:42;101064.75;;;19.29;63.29
16595;BME280;8410;52.532;13.336;2024-02-16T01:29:10;101056.13;;;19.26;62.82
16595;BME280;8410;52.532;13.336;2024-02-16T01:31:38;101062.72;;;18.97;62.99
16595;BME280;8410;52.532;13.336;2024-02-16T01:34:05;101067.00;;;19.01;63.14
16595;BME280;8410;52.532;13.336;2024-02-16T01:36:33;101063.81;;;18.84;63.14
16595;BME280;8410;52.532;13.336;2024-02-16T01:39:01;101055.91;;;18.88;63.66
16595;BME280;8410;52.532;13.336;2024-02-16T01:41:30;101057.03;;;18.70;64.09
16595;BME280;8410;52.532;13.336;2024-02-16T01:43:57;101060.16;;;18.94;63.18
16595;BME280;8410;52.532;13.336;2024-02-16T01:46:25;101052.34;;;18.94;63.17
16595;BME280;8410;52.532;13.336;2024-02-16T01:48:53;101046.66;;;18.67;64.28
16595;BME280;8410;52.532;13.336;2024-02-16T01:51:23;101049.84;;;18.88;62.97
16595;BME280;8410;52.532;13.336;2024-02-16T01:53:52;101041.06;;;18.92;62.68
16595;BME280;8410;52.532;13.336;2024-02-16T01:56:21;101038.00;;;18.65;63.73
16595;BME280;8410;52.532;13.336;2024-02-16T01:58:50;101029.50;;;18.54;64.19
16595;BME280;8410;52.532;13.336;2024-02-16T02:01:17;101032.00;;;18.60;64.16
16595;BME280;8410;52.532;13.336;2024-02-16T02:03:45;101022.63;;;18.47;64.23
16595;BME280;8410;52.532;13.336;2024-02-16T02:06:13;101022.41;;;18.62;64.31
16595;BME280;8410;52.532;13.336;2024-02-16T02:08:40;101029.53;;;18.51;64.07
16595;BME280;8410;52.532;13.336;2024-02-16T02:11:08;101025.06;;;18.02;64.19
16595;BME280;8410;52.532;13.336;2024-02-16T02:13:35;101028.94;;;16.84;67.80
16595;BME280;8410;52.532;13.336;2024-02-16T02:16:06;101020.91;;;17.87;66.37
16595;BME280;8410;52.532;13.336;2024-02-16T02:18:34;101002.31;;;18.13;65.08
16595;BME280;8410;52.532;13.336;2024-02-16T02:21:02;101004.56;;;18.36;64.79
16595;BME280;8410;52.532;13.336;2024-02-16T02:23:30;100991.69;;;18.27;64.21
16595;BME280;8410;52.532;13.336;2024-02-16T02:26:00;100990.09;;;18.18;63.56
16595;BME280;8410;52.532;13.336;2024-02-16T02:28:27;100992.81;;;18.11;64.68
16595;BME280;8410;52.532;13.336;2024-02-16T02:30:55;100987.22;;;18.35;64.12
16595;BME280;8410;52.532;13.336;2024-02-16T02:33:24;100983.75;;;18.35;63.94
16595;BME280;8410;52.532;13.336;2024-02-16T02:35:51;100987.88;;;18.46;63.45
16595;BME280;8410;52.532;13.336;2024-02-16T02:38:19;100979.28;;;18.41;64.01
16595;BME280;8410;52.532;13.336;2024-02-16T02:40:48;100982.91;;;18.34;63.81
16595;BME280;8410;52.532;13.336;2024-02-16T02:43:16;100987.03;;;18.46;63.91
16595;BME280;8410;52.532;13.336;2024-02-16T02:45:45;100978.19;;;17.99;64.62
16595;BME280;8410;52.532;13.336;2024-02-16T02:48:12;100974.13;;;18.40;63.79
16595;BME280;8410;52.532;13.336;2024-02-16T02:50:40;100975.66;;;18.51;63.22
16595;BME280;8410;52.532;13.336;2024-02-16T02:53:08;100972.19;;;18.51;62.60
16595;BME280;8410;52.532;13.336;2024-02-16T02:55:35;100973.94;;;18.49;63.36
16595;BME280;8410;52.532;13.336;2024-02-16T02:58:04;100972.19;;;18.51;62.67
16595;BME280;8410;52.532;13.336;2024-02-16T03:00:32;100968.84;;;18.43;62.85
16595;BME280;8410;52.532;13.336;2024-02-16T03:02:59;100979.41;;;17.73;65.85
16595;BME280;8410;52.532;13.336;2024-02-16T03:05:28;100973.50;;;18.22;64.60
16595;BME280;8410;52.532;13.336;2024-02-16T03:07:55;100971.06;;;18.13;63.25
16595;BME280;8410;52.532;13.336;2024-02-16T03:10:25;100976.28;;;18.12;63.51
16595;BME280;8410;52.532;13.336;2024-02-16T03:12:52;100972.63;;;18.23;63.63
16595;BME280;8410;52.532;13.336;2024-02-16T03:15:22;100982.16;;;18.26;63.82
16595;BME280;8410;52.532;13.336;2024-02-16T03:17:50;100974.34;;;18.24;63.69
16595;BME280;8410;52.532;13.336;2024-02-16T03:20:18;100976.25;;;18.13;64.43
16595;BME280;8410;52.532;13.336;2024-02-16T03:22:45;100976.31;;;18.10;63.75
16595;BME280;8410;52.532;13.336;2024-02-16T03:25:13;100976.31;;;18.10;64.15
16595;BME280;8410;52.532;13.336;2024-02-16T03:27:42;100974.78;;;17.97;62.91
16595;BME280;8410;52.532;13.336;2024-02-16T03:30:10;100973.03;;;17.96;63.76
16595;BME280;8410;52.532;13.336;2024-02-16T03:32:39;100970.41;;;17.96;64.43
16595;BME280;8410;52.532;13.336;2024-02-16T03:35:07;100975.13;;;17.66;64.44
16595;BME280;8410;52.532;13.336;2024-02-16T03:37:35;100969.97;;;17.63;64.99
16595;BME280;8410;52.532;13.336;2024-02-16T03:40:05;100955.78;;;17.89;64.27
16595;BME280;8410;52.532;13.336;2024-02-16T03:42:33;100948.72;;;17.97;64.03
16595;BME280;8410;52.532;13.336;2024-02-16T03:45:02;100958.88;;;18.12;64.08
16595;BME280;8410;52.532;13.336;2024-02-16T03:47:29;100959.00;;;18.06;63.88
16595;BME280;8410;52.532;13.336;2024-02-16T03:49:58;100960.41;;;18.25;63.07
16595;BME280;8410;52.532;13.336;2024-02-16T03:52:26;100961.47;;;18.15;63.73
16595;BME280;8410;52.532;13.336;2024-02-16T03:54:53;100952.13;;;18.02;63.23
16595;BME280;8410;52.532;13.336;2024-02-16T03:57:21;100960.47;;;17.60;63.36
16595;BME280;8410;52.532;13.336;2024-02-16T03:59:48;100958.00;;;17.50;65.56
16595;BME280;8410;52.532;13.336;2024-02-16T04:02:16;100948.84;;;17.88;64.54
16595;BME280;8410;52.532;13.336;2024-02-16T04:04:45;100940.16;;;17.89;63.46
16595;BME280;8410;52.532;13.336;2024-02-16T04:07:13;100940.06;;;17.95;64.32
16595;BME280;8410;52.532;13.336;2024-02-16T04:09:41;100946.03;;;18.01;63.61
16595;BME280;8410;52.532;13.336;2024-02-16T04:12:09;100952.13;;;18.00;63.80
16595;BME280;8410;52.532;13.336;2024-02-16T04:14:36;100941.06;;;17.86;64.00
16595;BME280;8410;52.532;13.336;2024-02-16T04:17:04;100944.56;;;17.83;64.13
16595;BME280;8410;52.532;13.336;2024-02-16T04:19:32;100935.59;;;18.03;63.32
16595;BME280;8410;52.532;13.336;2024-02-16T04:21:59;100945.41;;;17.85;63.91
16595;BME280;8410;52.532;13.336;2024-02-16T04:24:28;100944.59;;;17.77;64.34
16595;BME280;8410;52.532;13.336;2024-02-16T04:26:56;100950.06;;;17.60;64.51
16595;BME280;8410;52.532;13.336;2024-02-16T04:29:23;100946.28;;;17.15;65.92
16595;BME280;8410;52.532;13.336;2024-02-16T04:31:51;100929.88;;;17.76;64.54
16595;BME280;8410;52.532;13.336;2024-02-16T04:34:18;100929.06;;;17.71;64.86
16595;BME280;8410;52.532;13.336;2024-02-16T04:36:46;100932.47;;;17.81;63.45
16595;BME280;8410;52.532;13.336;2024-02-16T04:39:14;100935.03;;;17.82;64.38
16595;BME280;8410;52.532;13.336;2024-02-16T04:41:45;100929.75;;;17.87;64.31
16595;BME280;8410;52.532;13.336;2024-02-16T04:44:13;100926.44;;;17.74;63.72
16595;BME280;8410;52.532;13.336;2024-02-16T04:46:40;100922.91;;;17.81;63.99
16595;BME280;8410;52.532;13.336;2024-02-16T04:49:07;100915.09;;;17.81;64.24
16595;BME280;8410;52.532;13.336;2024-02-16T04:51:35;100911.69;;;17.73;63.55
16595;BME280;8410;52.532;13.336;2024-02-16T04:54:05;100907.53;;;17.60;63.63
16595;BME280;8410;52.532;13.336;2024-02-16T04:56:33;100905.31;;;17.96;63.71
16595;BME280;8410;52.532;13.336;2024-02-16T04:59:02;100908.66;;;18.04;62.73
16595;BME280;8410;52.532;13.336;2024-02-16T05:01:29;100912.75;;;18.20;62.75
16595;BME280;8410;52.532;13.336;2024-02-16T05:03:57;100909.25;;;18.20;63.01
16595;BME280;8410;52.532;13.336;2024-02-16T05:06:26;100906.84;;;18.09;62.98
16595;BME280;8410;52.532;13.336;2024-02-16T05:08:56;100911.66;;;17.76;64.37
16595;BME280;8410;52.532;13.336;2024-02-16T05:11:24;100909.19;;;18.24;63.07
16595;BME280;8410;52.532;13.336;2024-02-16T05:13:52;100910.19;;;18.17;63.12
16595;BME280;8410;52.532;13.336;2024-02-16T05:16:21;100904.88;;;18.23;62.95
16595;BME280;8410;52.532;13.336;2024-02-16T05:18:48;100900.03;;;17.99;62.60
16595;BME280;8410;52.532;13.336;2024-02-16T05:21:16;100907.50;;;17.63;64.09
16595;BME280;8410;52.532;13.336;2024-02-16T05:23:43;100909.03;;;17.76;63.90
16595;BME280;8410;52.532;13.336;2024-02-16T05:26:11;100900.38;;;17.74;64.00
16595;BME280;8410;52.532;13.336;2024-02-16T05:28:38;100892.03;;;17.51;64.79
16595;BME280;8410;52.532;13.336;2024-02-16T05:31:13;100884.81;;;17.71;63.66
16595;BME280;8410;52.532;13.336;2024-02-16T05:33:43;100875.53;;;16.87;65.39
16595;BME280;8410;52.532;13.336;2024-02-16T05:36:11;100867.00;;;17.44;65.04
16595;BME280;8410;52.532;13.336;2024-02-16T05:38:39;100867.78;;;17.49;64.95
16595;BME280;8410;52.532;13.336;2024-02-16T05:41:09;100859.13;;;17.47;64.32
16595;BME280;8410;52.532;13.336;2024-02-16T05:43:37;100864.50;;;17.36;65.25
16595;BME280;8410;52.532;13.336;2024-02-16T05:46:05;100861.75;;;17.47;65.01
16595;BME280;8410;52.532;13.336;2024-02-16T05:48:33;100860.81;;;17.51;64.48
16595;BME280;8410;52.532;13.336;2024-02-16T05:51:05;100871.00;;;17.66;64.37
16595;BME280;8410;52.532;13.336;2024-02-16T05:53:33;100875.66;;;17.44;65.02
16595;BME280;8410;52.532;13.336;2024-02-16T05:56:01;100881.66;;;17.48;64.42
16595;BME280;8410;52.532;13.336;2024-02-16T05:58:29;100885.50;;;17.22;65.04
16595;BME280;8410;52.532;13.336;2024-02-16T06:00:56;100882.38;;;16.92;64.94
16595;BME280;8410;52.532;13.336;2024-02-16T06:03:25;100873.81;;;16.84;66.24
16595;BME280;8410;52.532;13.336;2024-02-16T06:05:54;100871.72;;;16.27;67.31
16595;BME280;8410;52.532;13.336;2024-02-16T06:08:23;100863.88;;;16.35;68.25
16595;BME280;8410;52.532;13.336;2024-02-16T06:10:54;100864.75;;;17.16;66.02
16595;BME280;8410;52.532;13.336;2024-02-16T06:13:21;100868.09;;;17.27;65.57
16595;BME280;8410;52.532;13.336;2024-02-16T06:15:49;100862.00;;;17.28;65.16
16595;BME280;8410;52.532;13.336;2024-02-16T06:18:16;100858.09;;;17.58;64.38
16595;BME280;8410;52.532;13.336;2024-02-16T06:20:44;100863.28;;;17.60;64.33
16595;BME280;8410;52.532;13.336;2024-02-16T06:23:12;100862.03;;;17.25;64.63
16595;BME280;8410;52.532;13.336;2024-02-16T06:25:41;100864.44;;;17.40;64.90
16595;BME280;8410;52.532;13.336;2024-02-16T06:28:08;100861.75;;;17.47;64.64
16595;BME280;8410;52.532;13.336;2024-02-16T06:30:36;100853.88;;;17.50;63.68
16595;BME280;8410;52.532;13.336;2024-02-16T06:33:04;100848.78;;;17.44;64.40
16595;BME280;8410;52.532;13.336;2024-02-16T06:35:31;100855.59;;;17.54;64.61
16595;BME280;8410;52.532;13.336;2024-02-16T06:37:59;100871.94;;;17.60;64.25
16595;BME280;8410;52.532;13.336;2024-02-16T06:40:26;100873.53;;;17.71;63.74
16595;BME280;8410;52.532;13.336;2024-02-16T06:42:55;100890.28;;;17.53;63.90
16595;BME280;8410;52.532;13.336;2024-02-16T06:45:23;100888.47;;;17.59;64.34
16595;BME280;8410;52.532;13.336;2024-02-16T06:47:52;100882.63;;;16.65;64.88
16595;BME280;8410;52.532;13.336;2024-02-16T06:50:19;100890.47;;;17.40;65.47
16595;BME280;8410;52.532;13.336;2024-02-16T06:52:47;100885.88;;;17.59;64.22
16595;BME280;8410;52.532;13.336;2024-02-16T06:55:14;100886.63;;;17.66;63.13
16595;BME280;8410;52.532;13.336;2024-02-16T06:57:42;100888.31;;;17.70;63.57
16595;BME280;8410;52.532;13.336;2024-02-16T07:00:13;100879.91;;;17.50;64.17
16595;BME280;8410;52.532;13.336;2024-02-16T07:02:42;100878.69;;;17.12;64.48
16595;BME280;8410;52.532;13.336;2024-02-16T07:05:11;100872.94;;;17.52;64.90
16595;BME280;8410;52.532;13.336;2024-02-16T07:07:39;100871.31;;;17.45;65.25
16595;BME280;8410;52.532;13.336;2024-02-16T07:10:07;100880.38;;;17.78;64.03
16595;BME280;8410;52.532;13.336;2024-02-16T07:12:39;100871.75;;;17.74;64.12
16595;BME280;8410;52.532;13.336;2024-02-16T07:15:08;100892.38;;;17.90;62.88
16595;BME280;8410;52.532;13.336;2024-02-16T07:17:37;100886.38;;;17.84;63.74
16595;BME280;8410;52.532;13.336;2024-02-16T07:20:06;100879.97;;;18.05;63.64
16595;BME280;8410;52.532;13.336;2024-02-16T07:22:33;100872.16;;;18.07;62.74
16595;BME280;8410;52.532;13.336;2024-02-16T07:25:01;100879.34;;;17.91;63.43
16595;BME280;8410;52.532;13.336;2024-02-16T07:27:29;100876.47;;;18.08;62.72
16595;BME280;8410;52.532;13.336;2024-02-16T07:29:57;100868.66;;;18.08;62.09
16595;BME280;8410;52.532;13.336;2024-02-16T07:32:24;100866.53;;;18.32;62.91
16595;BME280;8410;52.532;13.336;2024-02-16T07:34:53;100858.13;;;18.14;62.70
16595;BME280;8410;52.532;13.336;2024-02-16T07:37:21;100864.34;;;18.05;62.67
16595;BME280;8410;52.532;13.336;2024-02-16T07:39:48;100860.66;;;18.19;62.89
16595;BME280;8410;52.532;13.336;2024-02-16T07:42:17;100858.66;;;18.35;61.86
16595;BME280;8410;52.532;13.336;2024-02-16T07:44:45;100862.94;;;17.23;64.71
16595;BME280;8410;52.532;13.336;2024-02-16T07:47:12;100859.75;;;18.21;63.42
16595;BME280;8410;52.532;13.336;2024-02-16T07:49:40;100852.13;;;18.57;62.27
16595;BME280;8410;52.532;13.336;2024-02-16T07:52:09;100859.88;;;18.12;62.27
16595;BME280;8410;52.532;13.336;2024-02-16T07:54:36;100852.44;;;18.42;62.51
16595;BME280;8410;52.532;13.336;2024-02-16T07:57:04;100851.91;;;18.69;61.68
16595;BME280;8410;52.532;13.336;2024-02-16T07:59:32;100850.06;;;18.28;63.01
16595;BME280;8410;52.532;13.336;2024-02-16T08:01:59;100849.84;;;18.87;60.55
16595;BME280;8410;52.532;13.336;2024-02-16T08:04:29;100866.16;;;18.98;61.09
16595;BME280;8410;52.532;13.336;2024-02-16T08:06:56;100864.66;;;18.86;61.62
16595;BME280;8410;52.532;13.336;2024-02-16T08:09:25;100861.81;;;18.97;61.31
16595;BME280;8410;52.532;13.336;2024-02-16T08:11:53;100872.56;;;18.82;62.10
16595;BME280;8410;52.532;13.336;2024-02-16T08:14:21;100866.88;;;19.05;61.00
16595;BME280;8410;52.532;13.336;2024-02-16T08:16:48;100867.59;;;19.13;60.23
16595;BME280;8410;52.532;13.336;2024-02-16T08:19:20;100878.75;;;18.78;60.14
16595;BME280;8410;52.532;13.336;2024-02-16T08:21:48;100872.72;;;19.17;60.27
16595;BME280;8410;52.532;13.336;2024-02-16T08:24:15;100880.22;;;18.91;60.51
16595;BME280;8410;52.532;13.336;2024-02-16T08:26:44;100881.00;;;19.36;60.16
16595;BME280;8410;52.532;13.336;2024-02-16T08:29:12;100879.94;;;19.05;60.32
16595;BME280;8410;52.532;13.336;2024-02-16T08:31:39;100867.97;;;19.35;60.07
16595;BME280;8410;52.532;13.336;2024-02-16T08:34:07;100871.25;;;19.04;61.44
16595;BME280;8410;52.532;13.336;2024-02-16T08:36:37;100864.22;;;19.48;59.73
16595;BME280;8410;52.532;13.336;2024-02-16T08:39:06;100871.56;;;19.31;59.34
16595;BME280;8410;52.532;13.336;2024-02-16T08:41:34;100866.78;;;19.51;59.49
16595;BME280;8410;52.532;13.336;2024-02-16T08:44:03;100862.47;;;19.49;59.62
16595;BME280;8410;52.532;13.336;2024-02-16T08:46:31;100862.16;;;19.63;59.12
16595;BME280;8410;52.532;13.336;2024-02-16T08:48:59;100861.41;;;19.57;59.13
16595;BME280;8410;52.532;13.336;2024-02-16T08:51:26;100857.88;;;19.60;59.55
16595;BME280;8410;52.532;13.336;2024-02-16T08:53:55;100847.16;;;19.72;58.98
16595;BME280;8410;52.532;13.336;2024-02-16T08:56:22;100858.16;;;19.85;58.79
16595;BME280;8410;52.532;13.336;2024-02-16T08:58:50;100840.50;;;19.57;58.88
16595;BME280;8410;52.532;13.336;2024-02-16T09:01:18;100823.16;;;19.92;58.85
16595;BME280;8410;52.532;13.336;2024-02-16T09:03:46;100836.91;;;19.99;58.61
16595;BME280;8410;52.532;13.336;2024-02-16T09:06:14;100832.69;;;19.95;58.26
16595;BME280;8410;52.532;13.336;2024-02-16T09:08:42;100830.75;;;20.03;58.41
16595;BME280;8410;52.532;13.336;2024-02-16T09:11:10;100836.53;;;19.41;60.36
16595;BME280;8410;52.532;13.336;2024-02-16T09:13:39;100842.41;;;19.88;58.97
16595;BME280;8410;52.532;13.336;2024-02-16T09:16:07;100848.31;;;19.96;58.50
16595;BME280;8410;52.532;13.336;2024-02-16T09:18:36;100849.50;;;19.83;58.44
16595;BME280;8410;52.532;13.336;2024-02-16T09:21:04;100836.72;;;20.07;58.13
16595;BME280;8410;52.532;13.336;2024-02-16T09:23:32;100832.91;;;20.20;57.84
16595;BME280;8410;52.532;13.336;2024-02-16T09:26:00;100835.94;;;19.67;58.27
16595;BME280;8410;52.532;13.336;2024-02-16T09:28:28;100834.19;;;20.05;58.09
16595;BME280;8410;52.532;13.336;2024-02-16T09:30:57;100833.25;;;20.08;58.12
16595;BME280;8410;52.532;13.336;2024-02-16T09:33:24;100823.44;;;20.48;57.37
16595;BME280;8410;52.532;13.336;2024-02-16T09:35:54;100834.91;;;19.76;58.59
16595;BME280;8410;52.532;13.336;2024-02-16T09:38:22;100833.34;;;20.70;57.13
16595;BME280;8410;52.532;13.336;2024-02-16T09:40:50;100827.22;;;21.01;56.50
16595;BME280;8410;52.532;13.336;2024-02-16T09:43:29;100829.50;;;21.11;56.34
16595;BME280;8410;52.532;13.336;2024-02-16T09:45:58;100843.53;;;20.46;57.34
16595;BME280;8410;52.532;13.336;2024-02-16T09:48:27;100823.00;;;21.25;55.57
16595;BME280;8410;52.532;13.336;2024-02-16T09:50:57;100827.91;;;21.35;55.45
16595;BME280;8410;52.532;13.336;2024-02-16T09:53:28;100831.19;;;21.44;55.26
16595;BME280;8410;52.532;13.336;2024-02-16T09:55:56;100832.38;;;21.04;55.94
16595;BME280;8410;52.532;13.336;2024-02-16T09:58:23;100838.00;;;21.49;55.18
16595;BME280;8410;52.532;13.336;2024-02-16T10:00:52;100839.75;;;21.49;55.10
16595;BME280;8410;52.532;13.336;2024-02-16T10:03:22;100840.19;;;21.63;54.35
16595;BME280;8410;52.532;13.336;2024-02-16T10:05:50;100832.94;;;21.71;53.55
16595;BME280;8410;52.532;13.336;2024-02-16T10:08:19;100836.91;;;21.56;53.94
16595;BME280;8410;52.532;13.336;2024-02-16T10:10:47;100834.97;;;21.90;54.22
16595;BME280;8410;52.532;13.336;2024-02-16T10:13:15;100830.44;;;21.68;54.29
16595;BME280;8410;52.532;13.336;2024-02-16T10:15:43;100837.47;;;21.93;53.65
16595;BME280;8410;52.532;13.336;2024-02-16T10:18:11;100839.53;;;21.83;53.89
16595;BME280;8410;52.532;13.336;2024-02-16T10:20:40;100839.78;;;21.75;53.79
16595;BME280;8410;52.532;13.336;2024-02-16T10:23:09;100840.50;;;21.80;53.10
16595;BME280;8410;52.532;13.336;2024-02-16T10:25:39;100855.94;;;21.90;53.25
16595;BME280;8410;52.532;13.336;2024-02-16T10:28:09;100844.63;;;21.61;53.68
16595;BME280;8410;52.532;13.336;2024-02-16T10:30:40;100844.03;;;21.79;53.17
16595;BME280;8410;52.532;13.336;2024-02-16T10:33:09;100840.88;;;21.42;53.17
16595;BME280;8410;52.532;13.336;2024-02-16T10:35:38;100833.34;;;21.86;53.32
16595;BME280;8410;52.532;13.336;2024-02-16T10:38:07;100841.38;;;21.53;53.58
16595;BME280;8410;52.532;13.336;2024-02-16T10:40:39;100834.16;;;21.88;52.91
16595;BME280;8410;52.532;13.336;2024-02-16T10:43:08;100832.72;;;21.77;53.10
16595;BME280;8410;52.532;13.336;2024-02-16T10:45:37;100835.72;;;21.93;52.90
16595;BME280;8410;52.532;13.336;2024-02-16T10:48:07;100840.00;;;21.96;52.66
16595;BME280;8410;52.532;13.336;2024-02-16T10:50:36;100831.03;;;22.03;52.41
16595;BME280;8410;52.532;13.336;2024-02-16T10:53:09;100830.59;;;21.89;52.88
16595;BME280;8410;52.532;13.336;2024-02-16T10:55:41;100830.44;;;21.95;52.63
16595;BME280;8410;52.532;13.336;2024-02-16T10:58:10;100827.69;;;21.98;52.78
16595;BME280;8410;52.532;13.336;2024-02-16T11:00:48;100823.69;;;21.86;53.15
16595;BME280;8410;52.532;13.336;2024-02-16T11:03:17;100822.63;;;21.92;52.97
16595;BME280;8410;52.532;13.336;2024-02-16T11:05:45;100805.44;;;21.85;52.93
16595;BME280;8410;52.532;13.336;2024-02-16T11:08:14;100806.84;;;21.95;53.14
16595;BME280;8410;52.532;13.336;2024-02-16T11:10:55;100801.94;;;22.11;52.60
16595;BME280;8410;52.532;13.336;2024-02-16T11:13:23;100805.53;;;22.33;52.35
16595;BME280;8410;52.532;13.336;2024-02-16T11:15:59;100807.81;;;22.19;52.65
16595;BME280;8410;52.532;13.336;2024-02-16T11:18:27;100810.41;;;22.44;52.23
16595;BME280;8410;52.532;13.336;2024-02-16T11:21:00;100803.22;;;22.49;52.31
16595;BME280;8410;52.532;13.336;2024-02-16T11:23:28;100806.03;;;22.19;52.00
16595;BME280;8410;52.532;13.336;2024-02-16T11:26:01;100802.56;;;22.42;52.55
16595;BME280;8410;52.532;13.336;2024-02-16T11:28:31;100794.78;;;22.41;52.61
16595;BME280;8410;52.532;13.336;2024-02-16T11:30:59;100796.47;;;22.42;52.37
16595;BME280;8410;52.532;13.336;2024-02-16T11:33:28;100790.22;;;22.46;51.96
16595;BME280;8410;52.532;13.336;2024-02-16T11:35:57;100789.53;;;22.41;52.46
16595;BME280;8410;52.532;13.336;2024-02-16T11:38:25;100767.22;;;22.76;51.41
16595;BME280;8410;52.532;13.336;2024-02-16T11:40:54;100773.91;;;22.85;50.99
16595;BME280;8410;52.532;13.336;2024-02-16T11:43:24;100786.09;;;22.14;53.13
16595;BME280;8410;52.532;13.336;2024-02-16T11:45:52;100779.75;;;22.70;51.54
16595;BME280;8410;52.532;13.336;2024-02-16T11:48:20;100781.72;;;22.86;50.74
16595;BME280;8410;52.532;13.336;2024-02-16T11:50:48;100789.19;;;22.50;51.46
16595;BME280;8410;52.532;13.336;2024-02-16T11:53:17;100782.69;;;22.84;50.91
16595;BME280;8410;52.532;13.336;2024-02-16T11:55:46;100779.97;;;23.10;50.54
16595;BME280;8410;52.532;13.336;2024-02-16T11:58:15;100778.81;;;22.94;51.41
16595;BME280;8410;52.532;13.336;2024-02-16T12:00:45;100787.06;;;22.61;51.81
16595;BME280;8410;52.532;13.336;2024-02-16T12:03:18;100788.25;;;23.00;49.95
16595;BME280;8410;52.532;13.336;2024-02-16T12:05:52;100792.78;;;22.71;51.81
16595;BME280;8410;52.532;13.336;2024-02-16T12:08:20;100792.00;;;23.38;50.00
16595;BME280;8410;52.532;13.336;2024-02-16T12:10:49;100789.31;;;22.94;50.63
16595;BME280;8410;52.532;13.336;2024-02-16T12:13:17;100784.53;;;23.49;49.44
16595;BME280;8410;52.532;13.336;2024-02-16T12:15:47;100784.38;;;23.32;50.71
16595;BME280;8410;52.532;13.336;2024-02-16T12:18:25;100780.69;;;23.36;49.63
16595;BME280;8410;52.532;13.336;2024-02-16T12:20:58;100781.44;;;23.40;49.77
16595;BME280;8410;52.532;13.336;2024-02-16T12:23:26;100778.72;;;22.97;50.20
16595;BME280;8410;52.532;13.336;2024-02-16T12:25:53;100777.94;;;23.17;50.46
16595;BME280;8410;52.532;13.336;2024-02-16T12:28:24;100770.31;;;23.33;50.16
16595;BME280;8410;52.532;13.336;2024-02-16T12:30:54;100775.16;;;23.64;49.36
16595;BME280;8410;52.532;13.336;2024-02-16T12:33:23;100778.00;;;22.92;50.43
16595;BME280;8410;52.532;13.336;2024-02-16T12:35:51;100773.41;;;23.43;49.12
16595;BME280;8410;52.532;13.336;2024-02-16T12:38:18;100771.50;;;23.46;49.28
16595;BME280;8410;52.532;13.336;2024-02-16T12:40:46;100781.97;;;22.80;50.66
16595;BME280;8410;52.532;13.336;2024-02-16T12:43:14;100773.84;;;23.54;49.61
16595;BME280;8410;52.532;13.336;2024-02-16T12:45:41;100776.59;;;23.51;49.31
16595;BME280;8410;52.532;13.336;2024-02-16T12:48:10;100781.00;;;23.50;49.42
16595;BME280;8410;52.532;13.336;2024-02-16T12:50:41;100780.47;;;23.63;48.96
16595;BME280;8410;52.532;13.336;2024-02-16T12:53:09;100772.25;;;23.72;49.41
16595;BME280;8410;52.532;13.336;2024-02-16T12:55:36;100777.47;;;23.94;48.80